Time;durP1;ratioP1;P1;durP2;ratioP2;P2;SDS_P1;SDS_P2;PMS_P1;PMS_P2;Temp;Humidity;BMP_temperature;BMP_pressure;BME280_temperature;BME280_humidity;BME280_pressure;Samples;Min_cycle;Max_cycle;Signal;HPM_P1;HPM_P2
2024/04/18 00:00:44;;;;;;;6.90;5.00;;;;;;;4.94;72.67;100702.26;108680;1260;139943;-65
2024/04/18 00:03:31;;;;;;;7.60;5.10;;;;;;;4.92;72.54;100704.20;108766;1260;74894;-64
2024/04/18 00:05:58;;;;;;;6.90;5.00;;;;;;;4.85;72.34;100713.14;108669;1260;139378;-64
2024/04/18 00:08:24;;;;;;;7.00;4.90;;;;;;;4.78;72.45;100708.78;108843;1259;60226;-65
2024/04/18 00:10:54;;;;;;;7.00;4.30;;;;;;;4.74;72.42;100710.16;108706;1260;74439;-64
2024/04/18 00:13:21;;;;;;;4.80;3.60;;;;;;;4.73;72.41;100712.02;108693;1260;139092;-64
2024/04/18 00:15:47;;;;;;;5.30;3.20;;;;;;;4.73;72.29;100707.33;108792;1260;72915;-64
2024/04/18 00:18:14;;;;;;;5.20;3.90;;;;;;;4.73;72.18;100708.56;108680;1260;137478;-64
2024/04/18 00:20:40;;;;;;;3.90;3.00;;;;;;;4.74;72.24;100713.14;108815;1260;59994;-63
2024/04/18 00:23:07;;;;;;;3.40;2.90;;;;;;;4.76;72.11;100712.19;108805;1260;60599;-64
2024/04/18 00:25:33;;;;;;;4.00;3.00;;;;;;;4.77;71.75;100716.75;108676;1260;137742;-63
2024/04/18 00:28:00;;;;;;;4.90;3.20;;;;;;;4.76;71.69;100718.26;108744;1261;73845;-63
2024/04/18 00:30:26;;;;;;;6.10;2.70;;;;;;;4.76;71.59;100716.35;108614;1260;139008;-63
2024/04/18 00:32:53;;;;;;;5.30;3.50;;;;;;;4.77;71.69;100714.11;108788;1263;59930;-64
2024/04/18 00:35:19;;;;;;;5.10;3.40;;;;;;;4.79;71.83;100717.01;108729;1260;138994;-64
2024/04/18 00:37:46;;;;;;;7.80;3.90;;;;;;;4.82;71.93;100715.39;108800;1260;64525;-63
2024/04/18 00:40:12;;;;;;;5.00;3.60;;;;;;;4.84;72.06;100716.55;108707;1260;72060;-64
2024/04/18 00:42:39;;;;;;;5.30;3.80;;;;;;;4.89;72.06;100719.04;108623;1260;138612;-65
2024/04/18 00:45:06;;;;;;;5.80;4.00;;;;;;;4.94;72.03;100721.34;108823;1260;59820;-64
2024/04/18 00:47:33;;;;;;;6.10;3.70;;;;;;;4.95;71.83;100718.98;108662;1260;137623;-63
2024/04/18 00:49:59;;;;;;;5.00;3.80;;;;;;;4.95;71.94;100715.30;108800;1260;65317;-64
2024/04/18 00:52:26;;;;;;;6.00;3.80;;;;;;;4.99;72.04;100717.77;108777;1260;72913;-64
2024/04/18 00:54:52;;;;;;;6.20;4.10;;;;;;;5.03;72.08;100717.95;108734;1260;137693;-64
2024/04/18 00:57:19;;;;;;;10.60;4.40;;;;;;;5.02;71.75;100719.64;108801;1260;60307;-64
2024/04/18 00:59:45;;;;;;;8.80;4.60;;;;;;;5.03;71.89;100718.80;108710;1260;139504;-64
2024/04/18 01:02:12;;;;;;;8.00;4.60;;;;;;;5.02;71.73;100718.61;108701;1260;64661;-64
2024/04/18 01:04:39;;;;;;;5.70;4.20;;;;;;;5.03;71.78;100717.23;108606;1261;73151;-64
2024/04/18 01:07:05;;;;;;;7.80;4.00;;;;;;;5.05;71.80;100719.61;108540;1261;138914;-65
2024/04/18 01:09:32;;;;;;;5.40;3.70;;;;;;;5.05;71.97;100717.73;108842;1260;59760;-65
2024/04/18 01:11:58;;;;;;;4.20;3.20;;;;;;;5.07;71.98;100715.70;108602;1260;138261;-66
2024/04/18 01:14:25;;;;;;;5.90;3.80;;;;;;;5.11;72.01;100713.44;108813;1260;59652;-65
2024/04/18 01:16:51;;;;;;;5.90;4.20;;;;;;;5.15;72.00;100721.48;108788;1260;60118;-65
2024/04/18 01:19:19;;;;;;;6.50;4.10;;;;;;;5.14;71.83;100718.27;108664;1260;138109;-64
2024/04/18 01:21:46;;;;;;;5.00;3.90;;;;;;;5.12;71.79;100718.21;108686;1260;60180;-65
2024/04/18 01:24:13;;;;;;;7.30;4.90;;;;;;;5.16;71.97;100718.37;108713;1260;139015;-65
2024/04/18 01:26:40;;;;;;;6.30;4.20;;;;;;;5.20;72.02;100718.39;108802;1264;66980;-64
2024/04/18 01:29:07;;;;;;;5.80;4.70;;;;;;;5.19;72.05;100718.52;108771;1260;71769;-64
2024/04/18 01:31:33;;;;;;;6.60;4.80;;;;;;;5.20;71.88;100721.02;108667;1260;138662;-64
2024/04/18 01:34:00;;;;;;;7.30;5.30;;;;;;;5.19;72.00;100718.00;108748;1261;61582;-65
2024/04/18 01:36:27;;;;;;;5.20;4.50;;;;;;;5.18;71.85;100718.48;108679;1260;137787;-64
2024/04/18 01:38:53;;;;;;;7.20;4.90;;;;;;;5.19;71.83;100721.83;108825;1260;65808;-64
2024/04/18 01:41:21;;;;;;;7.60;5.00;;;;;;;5.17;71.83;100719.66;108720;1260;137931;-64
2024/04/18 01:43:47;;;;;;;6.70;4.90;;;;;;;5.13;71.89;100723.96;108776;1260;59820;-64
2024/04/18 01:46:14;;;;;;;8.90;5.20;;;;;;;5.07;72.06;100721.79;108778;1260;60219;-65
2024/04/18 01:48:41;;;;;;;7.30;5.40;;;;;;;5.04;72.18;100723.04;108681;1260;138301;-65
2024/04/18 01:51:07;;;;;;;7.50;4.90;;;;;;;4.96;72.25;100724.26;108810;1260;65055;-65
2024/04/18 01:53:36;;;;;;;5.90;4.80;;;;;;;4.90;72.37;100723.80;108688;1260;139195;-65
2024/04/18 01:56:02;;;;;;;7.10;5.60;;;;;;;4.89;72.52;100720.23;108798;1260;59684;-66
2024/04/18 01:58:29;;;;;;;9.20;4.90;;;;;;;4.88;72.59;100720.22;108754;1261;60595;-66
2024/04/18 02:00:56;;;;;;;7.30;4.80;;;;;;;4.88;72.80;100721.09;108696;1260;138629;-67
2024/04/18 02:03:22;;;;;;;7.20;4.50;;;;;;;4.90;72.83;100716.98;108708;1260;66434;-65
2024/04/18 02:05:49;;;;;;;6.50;5.30;;;;;;;4.93;72.91;100716.27;108666;1260;138372;-65
2024/04/18 02:08:15;;;;;;;8.40;5.00;;;;;;;4.96;72.91;100715.55;108773;1263;60104;-66
2024/04/18 02:10:43;;;;;;;7.40;5.40;;;;;;;4.98;72.84;100715.44;108800;1263;61983;-65
2024/04/18 02:13:09;;;;;;;6.50;5.20;;;;;;;5.01;72.93;100718.73;108555;1260;138765;-65
2024/04/18 02:15:36;;;;;;;9.00;5.30;;;;;;;5.01;72.86;100717.16;108782;1264;66671;-65
2024/04/18 02:18:02;;;;;;;7.70;5.20;;;;;;;5.02;72.99;100721.55;108706;1260;137957;-65
2024/04/18 02:20:29;;;;;;;5.80;4.60;;;;;;;5.01;72.85;100723.45;108828;1260;59824;-63
2024/04/18 02:22:56;;;;;;;7.70;5.90;;;;;;;4.99;72.76;100722.44;108754;1260;60193;-63
2024/04/18 02:25:22;;;;;;;7.80;5.30;;;;;;;4.97;72.81;100722.20;108689;1260;138667;-63
2024/04/18 02:27:49;;;;;;;6.60;5.10;;;;;;;5.00;72.96;100724.58;108775;1260;66406;-62
2024/04/18 02:30:15;;;;;;;7.70;5.10;;;;;;;5.00;72.83;100722.50;108481;1260;278704;-62
2024/04/18 02:32:42;;;;;;;7.60;5.10;;;;;;;5.02;72.72;100724.33;108812;1260;60052;-62
2024/04/18 02:35:08;;;;;;;6.90;5.00;;;;;;;5.02;72.67;100724.34;108773;1260;60314;-63
2024/04/18 02:37:35;;;;;;;6.20;4.10;;;;;;;5.01;72.58;100729.49;108804;1260;75445;-63
2024/04/18 02:40:02;;;;;;;6.30;4.30;;;;;;;4.93;72.29;100728.06;108710;1262;67423;-63
2024/04/18 02:42:30;;;;;;;7.60;4.80;;;;;;;4.84;72.42;100728.90;108669;1260;137872;-62
2024/04/18 02:44:59;;;;;;;6.80;4.60;;;;;;;4.77;72.55;100728.88;108707;1260;59791;-65
2024/04/18 02:47:26;;;;;;;6.30;4.90;;;;;;;4.69;72.72;100733.40;108677;1260;138791;-64
2024/04/18 02:49:52;;;;;;;9.60;5.20;;;;;;;4.62;73.21;100733.59;108703;1260;76619;-64
2024/04/18 02:52:19;;;;;;;9.60;6.00;;;;;;;4.55;73.33;100743.45;108610;1260;65710;-64
2024/04/18 02:54:45;;;;;;;9.50;6.00;;;;;;;4.43;73.72;100742.39;108675;1260;139017;-64
2024/04/18 02:57:12;;;;;;;7.90;5.80;;;;;;;4.40;74.24;100744.14;108757;1260;60104;-64
2024/04/18 02:59:38;;;;;;;5.80;5.00;;;;;;;4.38;74.37;100749.77;108726;1260;138685;-65
2024/04/18 03:02:05;;;;;;;10.00;5.60;;;;;;;4.31;74.23;100745.23;108756;1260;75347;-65
2024/04/18 03:04:32;;;;;;;7.90;5.50;;;;;;;4.28;74.31;100745.48;108729;1260;65701;-65
2024/04/18 03:06:58;;;;;;;7.70;5.50;;;;;;;4.32;74.78;100744.44;108627;1265;138346;-64
2024/04/18 03:09:25;;;;;;;7.50;5.30;;;;;;;4.34;74.76;100742.95;108750;1260;60188;-64
2024/04/18 03:11:52;;;;;;;6.00;5.20;;;;;;;4.37;74.80;100745.73;108723;1260;138596;-64
2024/04/18 03:14:19;;;;;;;5.30;4.40;;;;;;;4.39;74.78;100745.48;108780;1260;75877;-64
2024/04/18 03:16:45;;;;;;;7.50;5.40;;;;;;;4.41;74.58;100749.55;108796;1260;66433;-65
2024/04/18 03:19:12;;;;;;;5.50;4.50;;;;;;;4.38;74.55;100750.48;108684;1260;139749;-65
2024/04/18 03:21:38;;;;;;;8.10;4.50;;;;;;;4.36;74.58;100749.67;108799;1260;63383;-65
2024/04/18 03:24:22;;;;;;;5.30;3.70;;;;;;;4.36;74.65;100750.36;108688;1260;138757;-64
2024/04/18 03:26:50;;;;;;;5.20;3.90;;;;;;;4.37;74.59;100750.25;108844;1260;75638;-65
2024/04/18 03:29:16;;;;;;;6.10;4.40;;;;;;;4.39;74.56;100755.20;108546;1263;138423;-65
2024/04/18 03:31:47;;;;;;;6.80;4.50;;;;;;;4.39;74.67;100757.15;108755;1260;73411;-65
2024/04/18 03:34:13;;;;;;;9.10;4.40;;;;;;;4.40;74.43;100762.02;108789;1260;59787;-65
2024/04/18 03:36:52;;;;;;;5.00;4.00;;;;;;;4.38;74.35;100761.40;108591;1260;138703;-65
2024/04/18 03:39:19;;;;;;;8.50;3.60;;;;;;;4.37;74.43;100759.96;108829;1260;76033;-65
2024/04/18 03:41:46;;;;;;;5.10;3.60;;;;;;;4.38;74.40;100762.08;108706;1260;138516;-65
2024/04/18 03:44:13;;;;;;;4.50;3.80;;;;;;;4.40;74.36;100763.96;108738;1260;72879;-66
2024/04/18 03:46:40;;;;;;;6.40;3.60;;;;;;;4.40;74.36;100762.75;108768;1260;60026;-65
2024/04/18 03:49:07;;;;;;;6.10;3.70;;;;;;;4.41;74.24;100764.86;108656;1260;138785;-64
2024/04/18 03:51:34;;;;;;;5.10;3.50;;;;;;;4.43;74.26;100766.89;108758;1260;76668;-64
2024/04/18 03:54:01;;;;;;;4.30;3.30;;;;;;;4.46;74.30;100768.07;108492;1261;138717;-64
2024/04/18 03:56:28;;;;;;;5.10;3.30;;;;;;;4.51;74.21;100773.17;108760;1260;73383;-64
2024/04/18 03:58:54;;;;;;;5.50;3.60;;;;;;;4.50;74.13;100775.70;108726;1260;59836;-64
2024/04/18 04:01:23;;;;;;;6.10;3.70;;;;;;;4.48;74.14;100778.92;108662;1260;139816;-63
2024/04/18 04:03:50;;;;;;;4.60;3.20;;;;;;;4.47;74.21;100780.13;108762;1260;75737;-63
2024/04/18 04:06:17;;;;;;;3.60;3.10;;;;;;;4.51;74.24;100783.08;108678;1260;138290;-63
2024/04/18 04:08:44;;;;;;;5.30;3.40;;;;;;;4.55;74.44;100789.86;108769;1260;71856;-63
2024/04/18 04:11:10;;;;;;;4.60;3.50;;;;;;;4.56;74.42;100793.42;108655;1260;138414;-63
2024/04/18 04:13:37;;;;;;;5.50;3.70;;;;;;;4.52;74.36;100798.05;108764;1260;60243;-63
2024/04/18 04:16:03;;;;;;;4.60;3.20;;;;;;;4.48;74.47;100801.70;108769;1260;74429;-63
2024/04/18 04:18:30;;;;;;;4.70;3.60;;;;;;;4.43;74.46;100800.95;108690;1260;138524;-63
2024/04/18 04:20:56;;;;;;;12.60;3.70;;;;;;;4.35;74.72;100805.02;108832;1260;59982;-63
2024/04/18 04:23:23;;;;;;;4.50;3.20;;;;;;;4.28;74.82;100807.31;108652;1260;139024;-63
2024/04/18 04:25:50;;;;;;;7.50;3.40;;;;;;;4.22;74.84;100813.58;108760;1260;60124;-63
2024/04/18 04:28:16;;;;;;;5.60;3.60;;;;;;;4.15;75.01;100810.26;108783;1260;75682;-63
2024/04/18 04:30:44;;;;;;;4.30;3.20;;;;;;;4.11;75.25;100813.36;108693;1260;139591;-63
2024/04/18 04:33:11;;;;;;;4.90;3.90;;;;;;;4.14;75.76;100818.52;108720;1260;73838;-63
2024/04/18 04:35:37;;;;;;;5.40;3.60;;;;;;;4.16;75.61;100816.21;108689;1260;140336;-64
2024/04/18 04:38:04;;;;;;;4.90;3.60;;;;;;;4.18;75.59;100820.15;108815;1264;60331;-63
2024/04/18 04:40:31;;;;;;;3.90;3.30;;;;;;;4.23;75.81;100819.20;108788;1260;73800;-62
2024/04/18 04:42:57;;;;;;;5.30;3.40;;;;;;;4.32;75.72;100817.42;108697;1260;139393;-63
2024/04/18 04:45:24;;;;;;;5.30;3.80;;;;;;;4.42;75.70;100827.48;108778;1260;72729;-63
2024/04/18 04:47:51;;;;;;;5.50;3.70;;;;;;;4.50;75.59;100821.25;108696;1260;139376;-63
2024/04/18 04:50:18;;;;;;;4.80;3.20;;;;;;;4.58;75.49;100822.02;108787;1260;61559;-63
2024/04/18 04:52:44;;;;;;;4.90;3.40;;;;;;;4.63;75.41;100822.61;108655;1260;74715;-64
2024/04/18 04:55:11;;;;;;;5.50;3.70;;;;;;;4.67;75.34;100822.67;108691;1260;138891;-63
2024/04/18 04:57:37;;;;;;;6.30;3.80;;;;;;;4.72;75.37;100821.81;108780;1260;71953;-63
2024/04/18 05:00:04;;;;;;;5.80;3.30;;;;;;;4.78;75.38;100824.40;108692;1260;139005;-65
2024/04/18 05:02:31;;;;;;;4.80;3.20;;;;;;;4.84;75.13;100824.54;108806;1260;60350;-65
2024/04/18 05:04:58;;;;;;;5.80;3.00;;;;;;;4.84;74.81;100828.34;108767;1261;76547;-66
2024/04/18 05:07:24;;;;;;;7.00;3.30;;;;;;;4.80;74.75;100823.45;108671;1260;138005;-63
2024/04/18 05:09:51;;;;;;;5.70;3.20;;;;;;;4.85;75.01;100827.34;108761;1260;72249;-66
2024/04/18 05:12:17;;;;;;;7.10;3.50;;;;;;;4.87;74.86;100828.48;108612;1260;138640;-66
2024/04/18 05:14:44;;;;;;;7.70;3.80;;;;;;;4.94;74.88;100825.18;108769;1264;60160;-65
2024/04/18 05:17:11;;;;;;;4.50;3.20;;;;;;;5.02;74.86;100823.30;108679;1260;138763;-65
2024/04/18 05:19:38;;;;;;;5.30;3.70;;;;;;;5.10;74.87;100824.74;108740;1265;66137;-66
2024/04/18 05:22:05;;;;;;;5.90;3.60;;;;;;;5.19;74.87;100829.16;108711;1260;70797;-65
2024/04/18 05:24:33;;;;;;;5.90;3.10;;;;;;;5.31;74.91;100827.66;108668;1260;139055;-65
2024/04/18 05:27:00;;;;;;;5.70;3.30;;;;;;;5.44;74.91;100831.40;108714;1260;60828;-65
2024/04/18 05:32:12;;;;;;;4.80;3.00;;;;;;;5.73;74.25;100834.45;108746;1260;66811;-64
2024/04/18 05:34:39;;;;;;;3.00;2.70;;;;;;;5.85;73.91;100836.77;108687;1266;72697;-65
2024/04/18 05:37:05;;;;;;;3.30;2.50;;;;;;;5.86;73.35;100834.02;108671;1260;137777;-65
2024/04/18 05:39:32;;;;;;;5.40;3.30;;;;;;;5.83;73.08;100838.56;108816;1260;60760;-63
2024/04/18 05:41:58;;;;;;;7.20;3.70;;;;;;;5.80;73.15;100836.02;108738;1260;138788;-65
2024/04/18 05:44:25;;;;;;;5.00;3.40;;;;;;;5.83;73.04;100840.14;108763;1260;59854;-64
2024/04/18 05:46:51;;;;;;;5.10;3.50;;;;;;;5.90;73.11;100842.73;108804;1260;59915;-62
2024/04/18 05:49:21;;;;;;;10.70;3.40;;;;;;;5.95;73.06;100845.44;108691;1264;139236;-62
2024/04/18 05:51:47;;;;;;;4.10;3.20;;;;;;;6.04;72.89;100845.13;108801;1261;60656;-62
2024/04/18 05:54:14;;;;;;;5.10;3.30;;;;;;;6.09;72.83;100845.67;108687;1260;139559;-63
2024/04/18 05:56:40;;;;;;;4.90;3.10;;;;;;;6.16;72.66;100841.30;108806;1260;67920;-63
2024/04/18 05:59:07;;;;;;;6.30;3.00;;;;;;;6.25;72.55;100846.05;108744;1260;73356;-63
2024/04/18 06:01:33;;;;;;;4.70;2.70;;;;;;;6.25;71.89;100846.21;108600;1260;138119;-63
2024/04/18 06:04:00;;;;;;;5.70;3.10;;;;;;;6.28;72.17;100851.59;108764;1265;59698;-63
2024/04/18 06:06:26;;;;;;;9.80;3.60;;;;;;;6.43;71.97;100851.52;108663;1260;137977;-65
2024/04/18 06:08:54;;;;;;;3.70;2.80;;;;;;;6.60;71.97;100849.64;108849;1260;59802;-63
2024/04/18 06:11:43;;;;;;;4.10;2.90;;;;;;;6.87;71.96;100844.31;108548;1260;137854;-64
2024/04/18 06:14:09;;;;;;;5.80;2.90;;;;;;;7.17;71.42;100847.27;108692;1260;59845;-63
2024/04/18 06:16:36;;;;;;;4.50;2.40;;;;;;;7.33;70.82;100842.88;108727;1260;60499;-63
2024/04/18 06:19:03;;;;;;;7.30;3.00;;;;;;;7.53;70.66;100839.65;108675;1260;138775;-63
2024/04/18 06:21:29;;;;;;;5.20;3.00;;;;;;;7.85;70.61;100839.96;108726;1260;66800;-64
2024/04/18 06:23:56;;;;;;;5.60;2.90;;;;;;;8.18;70.17;100846.05;108695;1261;138053;-64
2024/04/18 06:26:22;;;;;;;4.20;2.80;;;;;;;8.34;69.12;100845.05;108758;1261;60034;-64
2024/04/18 06:28:49;;;;;;;4.90;2.60;;;;;;;8.24;68.23;100844.01;108799;1261;60517;-64
2024/04/18 06:31:16;;;;;;;5.00;2.70;;;;;;;8.20;68.15;100845.78;108673;1260;138058;-64
2024/04/18 06:33:44;;;;;;;3.70;2.50;;;;;;;8.17;67.87;100849.20;108794;1263;65871;-64
2024/04/18 06:36:11;;;;;;;5.30;2.30;;;;;;;8.19;67.77;100851.53;108738;1260;137920;-64
2024/04/18 06:38:38;;;;;;;2.90;2.10;;;;;;;8.09;66.93;100856.92;108788;1260;59888;-64
2024/04/18 06:41:07;;;;;;;4.40;2.60;;;;;;;7.85;66.62;100861.61;108760;1260;59851;-64
2024/04/18 06:43:34;;;;;;;4.00;2.50;;;;;;;7.61;66.59;100868.91;108692;1260;138489;-64
2024/04/18 06:46:00;;;;;;;4.40;2.30;;;;;;;7.46;66.72;100874.09;108811;1261;60098;-64
2024/04/18 06:48:27;;;;;;;5.40;2.60;;;;;;;7.37;66.82;100872.33;108685;1261;139245;-64
2024/04/18 06:50:53;;;;;;;4.60;2.80;;;;;;;7.29;66.76;100878.85;108826;1263;59822;-64
2024/04/18 06:53:20;;;;;;;6.90;2.90;;;;;;;7.20;66.79;100877.09;108678;1260;138202;-64
2024/04/18 06:55:46;;;;;;;5.60;2.70;;;;;;;7.18;66.81;100881.89;108817;1260;60474;-64
2024/04/18 06:58:13;;;;;;;6.60;2.60;;;;;;;7.12;66.80;100886.52;108820;1259;66085;-63
2024/04/18 07:00:41;;;;;;;4.80;3.00;;;;;;;7.09;66.97;100885.02;108677;1263;137803;-64
2024/04/18 07:03:08;;;;;;;5.70;2.90;;;;;;;7.18;67.15;100888.52;108839;1260;60078;-63
2024/04/18 07:05:34;;;;;;;4.70;2.70;;;;;;;7.11;66.75;100892.77;108615;1260;138219;-62
2024/04/18 07:08:01;;;;;;;5.10;2.90;;;;;;;7.04;66.93;100898.77;108796;1261;60306;-64
2024/04/18 07:10:27;;;;;;;2.90;2.30;;;;;;;7.06;67.01;100892.23;108815;1259;60082;-64
2024/04/18 07:12:53;;;;;;;5.10;2.70;;;;;;;6.94;66.57;100892.75;108692;1261;137798;-64
2024/04/18 07:15:20;;;;;;;4.10;2.90;;;;;;;6.86;66.95;100895.40;108808;1263;60329;-64
2024/04/18 07:17:46;;;;;;;5.20;3.00;;;;;;;6.84;66.90;100901.23;108714;1263;138373;-64
2024/04/18 07:20:13;;;;;;;6.40;4.80;;;;;;;6.74;66.86;100897.67;108813;1260;60330;-64
2024/04/18 07:22:42;;;;;;;5.40;3.60;;;;;;;6.63;67.11;100895.65;108829;1260;59812;-64
2024/04/18 07:25:08;;;;;;;16.40;8.00;;;;;;;6.61;67.39;100898.33;108687;1259;137845;-64
2024/04/18 07:27:34;;;;;;;9.20;6.20;;;;;;;6.59;67.59;100897.88;108828;1261;60388;-64
2024/04/18 07:30:01;;;;;;;6.90;4.20;;;;;;;6.55;67.65;100907.33;108751;1264;138151;-63
2024/04/18 07:32:27;;;;;;;11.60;6.40;;;;;;;6.43;67.94;100908.55;108810;1264;73641;-63
2024/04/18 07:34:54;;;;;;;6.30;3.20;;;;;;;6.34;68.01;100908.50;108825;1260;59767;-63
2024/04/18 07:37:20;;;;;;;5.90;3.50;;;;;;;6.29;68.38;100913.50;108597;1260;139079;-63
2024/04/18 07:39:47;;;;;;;24.90;14.60;;;;;;;6.23;68.71;100914.10;108764;1260;59977;-64
2024/04/18 07:42:15;;;;;;;20.20;14.20;;;;;;;6.24;69.14;100917.29;108650;1261;138745;-64
2024/04/18 07:44:42;;;;;;;30.50;21.70;;;;;;;6.24;69.72;100919.01;108807;1262;73656;-63
2024/04/18 07:47:08;;;;;;;3.30;2.90;;;;;;;6.27;69.53;100923.67;108782;1260;66269;-64
2024/04/18 07:49:35;;;;;;;5.10;2.40;;;;;;;6.10;69.34;100934.95;108765;1261;71894;-64
2024/04/18 07:52:01;;;;;;;5.70;3.40;;;;;;;5.90;70.00;100932.95;108684;1265;67090;-63
2024/04/18 07:54:28;;;;;;;7.40;4.90;;;;;;;5.87;70.34;100937.16;108709;1261;139601;-63
2024/04/18 07:56:54;;;;;;;9.50;6.00;;;;;;;5.92;70.21;100940.34;108823;1261;59839;-63
2024/04/18 07:59:21;;;;;;;6.50;5.00;;;;;;;6.01;70.21;100938.70;108683;1260;139346;-63
2024/04/18 08:01:47;;;;;;;6.70;5.10;;;;;;;6.21;70.50;100930.56;108747;1260;60056;-63
2024/04/18 08:04:14;;;;;;;3.30;3.00;;;;;;;6.60;70.85;100926.00;108700;1267;60005;-63
2024/04/18 08:06:41;;;;;;;3.00;2.80;;;;;;;7.00;70.69;100924.92;108662;1261;138078;-63
2024/04/18 08:09:08;;;;;;;8.90;7.00;;;;;;;7.26;70.16;100918.53;108812;1260;75695;-63
2024/04/18 08:11:34;;;;;;;3.90;3.30;;;;;;;7.54;69.82;100918.77;108682;1261;138349;-63
2024/04/18 08:14:01;;;;;;;7.40;5.20;;;;;;;7.73;69.12;100915.86;108777;1264;72411;-63
2024/04/18 08:16:27;;;;;;;7.20;5.10;;;;;;;7.76;68.72;100916.86;108814;1260;60019;-64
2024/04/18 08:18:54;;;;;;;10.60;5.90;;;;;;;7.77;68.62;100925.46;108680;1261;137949;-65
2024/04/18 08:21:20;;;;;;;13.80;9.60;;;;;;;7.60;68.13;100926.86;108842;1260;59897;-62
2024/04/18 08:23:51;;;;;;;7.70;5.30;;;;;;;7.41;68.21;100930.80;108700;1260;138563;-65
2024/04/18 08:26:17;;;;;;;8.10;4.70;;;;;;;7.19;68.04;100937.25;108820;1260;73061;-64
2024/04/18 08:28:44;;;;;;;5.50;3.90;;;;;;;7.01;68.09;100941.73;108804;1260;59905;-64
2024/04/18 08:31:10;;;;;;;6.70;4.60;;;;;;;6.86;68.57;100941.46;108711;1260;138370;-64
2024/04/18 08:33:37;;;;;;;23.90;18.50;;;;;;;6.83;68.70;100946.17;108826;1261;59898;-62
2024/04/18 08:36:03;;;;;;;7.80;6.00;;;;;;;6.90;68.90;100948.23;108724;1260;139046;-63
2024/04/18 08:38:30;;;;;;;45.50;34.70;;;;;;;6.94;68.60;100949.81;108764;1261;59791;-62
2024/04/18 08:40:59;;;;;;;24.50;17.90;;;;;;;6.97;68.45;100952.91;108761;1260;60003;-62
2024/04/18 08:43:27;;;;;;;8.00;4.80;;;;;;;7.00;68.46;100955.83;108609;1260;138527;-62
2024/04/18 08:45:54;;;;;;;6.60;4.40;;;;;;;7.12;68.39;100948.82;108793;1260;74148;-63
2024/04/18 08:48:20;;;;;;;9.40;7.70;;;;;;;7.32;68.42;100944.78;108647;1260;138692;-63
2024/04/18 08:50:46;;;;;;;10.50;6.20;;;;;;;7.55;68.08;100938.20;108624;1260;73217;-62
2024/04/18 08:53:13;;;;;;;6.20;3.20;;;;;;;7.72;67.80;100934.34;108707;1260;138631;-62
2024/04/18 08:55:44;;;;;;;21.50;9.40;;;;;;;7.90;67.66;100934.17;108784;1260;59941;-63
2024/04/18 08:58:10;;;;;;;8.20;6.30;;;;;;;8.09;67.39;100937.83;108750;1260;75268;-63
2024/04/18 09:00:43;;;;;;;6.00;4.40;;;;;;;8.34;67.13;100939.86;108545;1260;138787;-63
2024/04/18 09:03:10;;;;;;;5.10;3.20;;;;;;;8.43;65.95;100944.89;108833;1260;70560;-63
2024/04/18 09:05:37;;;;;;;5.30;4.30;;;;;;;8.31;66.83;100930.80;108506;1260;139265;-63
2024/04/18 09:08:05;;;;;;;4.90;3.20;;;;;;;8.35;66.66;100930.98;108769;1264;61648;-63
2024/04/18 09:10:31;;;;;;;3.80;2.70;;;;;;;8.47;66.19;100935.60;108773;1260;75123;-63
2024/04/18 09:12:58;;;;;;;5.10;2.40;;;;;;;8.52;66.03;100932.33;108662;1260;139044;-63
2024/04/18 09:15:26;;;;;;;4.40;3.10;;;;;;;8.53;65.84;100934.45;108820;1260;72976;-63
2024/04/18 09:18:03;;;;;;;2.50;2.20;;;;;;;8.34;65.26;100934.61;108640;1260;138828;-64
2024/04/18 09:20:31;;;;;;;3.10;2.40;;;;;;;8.11;65.16;100937.40;108799;1260;60588;-63
2024/04/18 09:22:58;;;;;;;4.60;1.80;;;;;;;8.20;65.49;100931.96;108778;1260;75901;-64
2024/04/18 09:25:24;;;;;;;2.90;2.60;;;;;;;8.59;65.94;100931.86;108591;1260;138019;-64
2024/04/18 09:27:50;;;;;;;2.50;2.00;;;;;;;8.90;65.16;100932.95;108720;1261;60992;-63
2024/04/18 09:30:17;;;;;;;5.50;3.40;;;;;;;8.89;64.03;100934.99;108709;1260;138494;-64
2024/04/18 09:32:44;;;;;;;2.30;1.70;;;;;;;8.91;63.54;100934.53;108788;1260;59910;-64
2024/04/18 09:35:11;;;;;;;3.30;1.90;;;;;;;8.84;63.31;100936.77;108825;1259;76167;-63
2024/04/18 09:37:41;;;;;;;5.10;3.80;;;;;;;8.76;62.13;100937.88;108730;1259;66093;-63
2024/04/18 09:40:11;;;;;;;5.60;4.20;;;;;;;8.67;62.12;100935.80;108799;1260;73813;-63
2024/04/18 09:42:47;;;;;;;3.00;2.20;;;;;;;8.67;62.60;100931.45;108698;1260;138011;-63
2024/04/18 09:45:16;;;;;;;3.80;3.10;;;;;;;8.81;62.64;100932.45;108855;1259;61392;-63
2024/04/18 09:47:42;;;;;;;3.10;2.00;;;;;;;8.97;62.61;100931.95;108512;1260;138906;-64
2024/04/18 09:50:10;;;;;;;3.20;1.70;;;;;;;8.95;61.87;100930.64;108805;1259;64784;-63
2024/04/18 09:52:36;;;;;;;3.30;1.80;;;;;;;8.84;62.10;100928.69;108665;1260;70610;-64
2024/04/18 09:55:03;;;;;;;7.00;1.90;;;;;;;8.93;62.19;100930.39;108590;1260;138557;-64
2024/04/18 09:57:29;;;;;;;3.50;2.10;;;;;;;9.15;62.19;100929.61;108766;1261;59992;-64
2024/04/18 09:59:56;;;;;;;3.50;2.60;;;;;;;9.43;62.07;100932.77;108582;1260;138163;-64
2024/04/18 10:02:23;;;;;;;3.40;1.90;;;;;;;9.54;61.92;100929.98;108614;1264;64848;-64
2024/04/18 10:04:49;;;;;;;4.70;1.90;;;;;;;9.60;61.71;100929.48;108643;1264;73014;-63
2024/04/18 10:07:16;;;;;;;5.30;1.90;;;;;;;9.53;61.41;100938.37;108507;1265;138149;-63
2024/04/18 10:09:43;;;;;;;6.20;3.80;;;;;;;9.34;61.21;100929.35;108736;1263;60174;-64
2024/04/18 10:12:09;;;;;;;4.10;2.80;;;;;;;9.35;61.97;100933.77;108547;1260;138270;-63
2024/04/18 10:14:36;;;;;;;4.00;2.20;;;;;;;9.15;60.94;100929.93;108751;1261;67128;-64
2024/04/18 10:17:04;;;;;;;4.90;2.20;;;;;;;8.85;61.36;100923.15;108738;1261;71652;-63
2024/04/18 10:19:31;;;;;;;5.50;2.70;;;;;;;8.91;62.41;100919.84;108665;1260;138597;-64
2024/04/18 10:21:58;;;;;;;5.20;2.40;;;;;;;9.11;61.90;100928.23;108713;1260;60163;-63
2024/04/18 10:24:34;;;;;;;4.60;1.90;;;;;;;8.92;61.27;100918.67;108682;1260;138170;-63
2024/04/18 10:27:06;;;;;;;3.00;2.20;;;;;;;8.72;60.88;100917.96;108750;1262;65880;-64
2024/04/18 10:29:33;;;;;;;1.80;1.40;;;;;;;8.76;61.09;100918.99;108484;1260;138091;-63
2024/04/18 10:32:00;;;;;;;3.40;1.40;;;;;;;9.02;61.18;100919.86;108744;1260;59858;-64
2024/04/18 10:34:26;;;;;;;2.70;1.30;;;;;;;9.27;60.98;100927.20;108711;1260;60200;-63
2024/04/18 10:36:53;;;;;;;4.40;1.70;;;;;;;9.33;60.56;100926.88;108672;1260;138041;-64
2024/04/18 10:39:32;;;;;;;3.40;1.30;;;;;;;9.46;60.09;100922.19;108755;1264;64403;-63
2024/04/18 10:42:11;;;;;;;3.20;2.50;;;;;;;9.66;60.20;100916.17;108623;1260;138093;-63
2024/04/18 10:44:37;;;;;;;4.60;2.30;;;;;;;9.81;60.17;100915.95;108699;1260;60208;-63
2024/04/18 10:47:04;;;;;;;4.80;2.60;;;;;;;9.79;59.32;100923.42;108726;1264;60005;-63
2024/04/18 10:49:30;;;;;;;2.60;2.40;;;;;;;9.50;59.32;100919.17;108642;1261;138752;-63
2024/04/18 10:51:57;;;;;;;2.70;1.90;;;;;;;9.52;59.89;100922.73;108778;1261;60781;-63
2024/04/18 10:54:24;;;;;;;3.80;2.00;;;;;;;9.51;59.73;100922.35;108607;1261;138157;-63
2024/04/18 10:56:50;;;;;;;7.20;2.40;;;;;;;9.52;59.88;100927.13;108675;1262;59845;-63
2024/04/18 10:59:16;;;;;;;3.60;2.80;;;;;;;9.38;59.80;100934.02;108690;1259;138498;-64
2024/04/18 11:01:43;;;;;;;5.20;2.60;;;;;;;9.07;59.87;100933.00;108704;1263;60318;-64
2024/04/18 11:04:10;;;;;;;3.10;2.60;;;;;;;8.70;59.80;100931.36;108814;1259;59883;-64
2024/04/18 11:06:37;;;;;;;5.60;3.40;;;;;;;8.47;60.19;100933.88;108628;1260;138650;-64
2024/04/18 11:09:03;;;;;;;4.80;3.40;;;;;;;8.47;60.59;100931.42;108773;1260;59850;-64
2024/04/18 11:11:32;;;;;;;4.70;2.80;;;;;;;8.48;60.62;100936.52;108626;1260;138613;-64
2024/04/18 11:13:59;;;;;;;4.50;3.50;;;;;;;8.45;60.48;100933.27;108726;1261;75853;-64
2024/04/18 11:16:26;;;;;;;9.50;6.80;;;;;;;8.49;60.82;100929.20;108593;1260;64292;-64
2024/04/18 11:18:56;;;;;;;6.00;3.20;;;;;;;8.72;60.85;100941.92;108644;1260;138000;-63
2024/04/18 11:21:25;;;;;;;4.60;2.60;;;;;;;8.74;59.99;100946.72;108805;1260;59786;-63
2024/04/18 11:23:55;;;;;;;3.70;3.10;;;;;;;8.57;59.95;100940.55;108690;1260;138482;-64